18 Jul 2018 01:05 UTC 2018199+01:05 UTC

Overview Datums Bench Marks Data Query Site Visit Daily QC Messages Attributes

130: GBRA Station #2

28° 24' 26" N   96° 42' 43" W
GBRA2
Guadalupe Blanco River Authority (GBRA) GBRA

Station Information

GBRA Station #2
GBRA Station #2
more pictures
 
Station Name:GBRA Station #2
DNR ID:130
Location:28° 24' 26" N, 96° 42' 43" W

Water Level Forecasts

Latest Observations

Series Metric English Marine Observed at
Water Temperature 32.0 °C 89.6 °F 89.6 °F Jul 17 19:54 CDT
00h07m ago
Salinity 9.600 psu 9.600 psu 9.600 psu Jul 17 19:54 CDT
00h07m ago

Maps

GBRA Station #2
All Stations in Area
Entire Network
 

Recent Observations

Date/Time Water
Temp (°F)
Sal (psu)
Jul 17 19:00 CDT 90.0 9.600
Jul 17 18:00 CDT 90.1 9.400
Jul 17 17:00 CDT 90.3 9.300
Jul 17 16:00 CDT 90.0 9.300
Jul 17 15:00 CDT 89.6 9.300
Jul 17 14:00 CDT 89.1 9.300
Jul 17 13:00 CDT 88.0 9.100
Jul 17 12:00 CDT 87.3 9.400
Jul 17 11:00 CDT 85.6 9.500
Jul 17 10:00 CDT 84.7 9.500
Jul 17 09:00 CDT 84.2 9.400
Jul 17 08:00 CDT 84.2 9.600
Jul 17 07:00 CDT 84.4 9.600
Jul 17 06:00 CDT 84.6 9.600
Jul 17 05:00 CDT 84.9 9.700
Jul 17 04:00 CDT 85.6 9.700
Jul 17 03:00 CDT 85.8 9.700
Jul 17 02:00 CDT 86.2 10.100
Jul 17 01:00 CDT 86.4 9.700
Jul 17 00:00 CDT 86.9 9.400
Jul 16 23:00 CDT 87.3 9.200
Jul 16 22:00 CDT 87.8 9.200
Jul 16 21:00 CDT 88.3 9.000
Jul 16 20:00 CDT 88.7 8.600

Historical Data Availability